createdAt,value
2023-02-11T00:01:30.739Z,30.20
2023-02-11T00:03:58.923Z,30.00
2023-02-11T00:06:28.177Z,30.50
2023-02-11T00:08:56.284Z,30.50
2023-02-11T00:11:31.182Z,30.20
2023-02-11T00:14:02.608Z,30.40
2023-02-11T00:16:30.808Z,30.50
2023-02-11T00:19:02.858Z,30.60
2023-02-11T00:21:29.988Z,30.70
2023-02-11T00:24:00.286Z,30.80
2023-02-11T00:26:30.062Z,30.80
2023-02-11T00:28:57.328Z,30.60
2023-02-11T00:31:25.395Z,30.90
2023-02-11T00:33:53.066Z,30.80
2023-02-11T00:36:24.531Z,30.60
2023-02-11T00:38:52.929Z,30.50
2023-02-11T00:41:20.478Z,30.60
2023-02-11T00:43:48.015Z,30.80
2023-02-11T00:46:17.005Z,31.00
2023-02-11T00:48:44.050Z,31.60
2023-02-11T00:51:11.519Z,31.70
2023-02-11T00:53:38.588Z,31.80
2023-02-11T00:56:05.864Z,31.60
2023-02-11T00:58:32.737Z,31.30
2023-02-11T01:01:01.211Z,31.80
2023-02-11T01:03:28.370Z,31.90
2023-02-11T01:05:55.314Z,32.30
2023-02-11T01:08:22.234Z,32.30
2023-02-11T01:11:17.266Z,32.40
2023-02-11T01:13:44.530Z,32.30
2023-02-11T01:16:12.788Z,32.10
2023-02-11T01:18:41.882Z,32.10
2023-02-11T01:21:08.831Z,31.90
2023-02-11T01:23:35.741Z,31.50
2023-02-11T01:26:02.686Z,31.90
2023-02-11T01:28:31.131Z,32.00
2023-02-11T01:30:58.306Z,31.50
2023-02-11T01:33:25.263Z,31.70
2023-02-11T01:35:52.533Z,31.60
2023-02-11T01:38:25.339Z,31.80
2023-02-11T01:41:01.889Z,31.50
2023-02-11T01:43:38.729Z,31.90
2023-02-11T01:46:11.709Z,32.20
2023-02-11T01:48:45.611Z,32.70
2023-02-11T01:51:26.539Z,33.00
2023-02-11T01:54:12.586Z,32.50
2023-02-11T01:57:05.967Z,32.90
2023-02-11T01:59:40.920Z,33.30
2023-02-11T02:02:12.700Z,33.40
2023-02-11T02:04:49.884Z,33.60
2023-02-11T02:07:52.591Z,33.40
2023-02-11T02:10:22.987Z,33.10
2023-02-11T02:12:49.820Z,33.80
2023-02-11T02:15:26.803Z,34.10
2023-02-11T02:18:01.771Z,33.70
2023-02-11T02:20:53.269Z,33.50
2023-02-11T02:23:28.602Z,34.30
2023-02-11T02:26:10.145Z,34.30
2023-02-11T02:29:11.045Z,33.90
2023-02-11T02:31:59.129Z,33.60
2023-02-11T02:34:44.581Z,34.00
2023-02-11T02:37:21.929Z,34.10
2023-02-11T02:39:50.583Z,34.00
2023-02-11T02:42:20.188Z,34.30
2023-02-11T02:44:53.620Z,33.80
2023-02-11T02:47:20.503Z,33.80
2023-02-11T02:49:47.314Z,34.00
2023-02-11T02:52:52.205Z,34.10
2023-02-11T02:55:37.541Z,34.10
2023-02-11T02:58:42.168Z,34.30
2023-02-11T03:01:37.480Z,34.60
2023-02-11T03:04:07.486Z,34.80
2023-02-11T03:06:57.941Z,34.70
2023-02-11T03:09:50.881Z,34.60
2023-02-11T03:12:18.500Z,34.80
2023-02-11T03:14:46.384Z,35.20
2023-02-11T03:17:15.359Z,35.00
2023-02-11T03:19:45.265Z,35.20
2023-02-11T03:22:22.009Z,35.20
2023-02-11T03:24:49.386Z,34.70
2023-02-11T03:27:37.971Z,34.60
2023-02-11T03:30:07.960Z,34.60
2023-02-11T03:32:41.732Z,34.70
2023-02-11T03:35:17.409Z,34.50
2023-02-11T03:37:57.380Z,34.60
2023-02-11T03:40:29.630Z,34.80
2023-02-11T03:43:04.826Z,34.90
2023-02-11T03:45:32.453Z,34.60
2023-02-11T03:48:12.758Z,34.70
2023-02-11T03:50:41.451Z,34.60
2023-02-11T03:53:09.973Z,34.50
2023-02-11T03:55:39.746Z,34.40
2023-02-11T03:58:07.042Z,33.60
2023-02-11T04:00:39.913Z,33.50
2023-02-11T04:03:08.259Z,33.00
2023-02-11T04:05:36.350Z,33.60
2023-02-11T04:08:03.855Z,33.70
2023-02-11T04:10:30.988Z,33.40
2023-02-11T04:12:57.955Z,33.50
2023-02-11T04:15:25.400Z,33.60
2023-02-11T04:17:52.425Z,33.70
2023-02-11T04:20:19.396Z,33.60
2023-02-11T04:22:46.301Z,33.40
2023-02-11T04:25:13.153Z,33.80
2023-02-11T04:27:39.955Z,33.70
2023-02-11T04:30:09.128Z,33.80
2023-02-11T04:32:36.052Z,34.00
2023-02-11T04:35:03.626Z,34.50
2023-02-11T04:37:30.512Z,34.70
2023-02-11T04:39:57.370Z,34.40
2023-02-11T04:42:24.872Z,34.40
2023-02-11T04:44:51.724Z,35.00
2023-02-11T04:47:18.602Z,35.00
2023-02-11T04:49:45.600Z,34.60
2023-02-11T04:52:12.446Z,34.30
2023-02-11T04:54:39.470Z,34.40
2023-02-11T04:57:06.486Z,33.80
2023-02-11T04:59:33.413Z,34.20
2023-02-11T05:02:00.283Z,34.00
2023-02-11T05:04:27.272Z,34.30
2023-02-11T05:06:54.617Z,34.20
2023-02-11T05:09:22.090Z,34.20
2023-02-11T05:11:49.815Z,34.60
2023-02-11T05:14:16.780Z,34.40
2023-02-11T05:16:43.671Z,34.50
2023-02-11T05:19:10.505Z,34.40
2023-02-11T05:21:37.361Z,33.80
2023-02-11T05:24:04.529Z,34.40
2023-02-11T05:26:32.002Z,34.20
2023-02-11T05:28:59.624Z,34.70
2023-02-11T05:31:26.603Z,34.60
2023-02-11T05:33:53.479Z,34.70
2023-02-11T05:36:20.354Z,35.10
2023-02-11T05:38:47.214Z,34.70
2023-02-11T05:41:14.117Z,34.80
2023-02-11T05:43:40.976Z,35.60
2023-02-11T05:46:08.419Z,36.00
2023-02-11T05:48:35.462Z,35.90
2023-02-11T05:51:02.334Z,36.20
2023-02-11T05:53:29.115Z,36.20
2023-02-11T05:55:55.975Z,36.90
2023-02-11T05:58:22.870Z,36.90
2023-02-11T06:00:49.669Z,36.60
2023-02-11T06:03:16.571Z,36.80
2023-02-11T06:05:44.853Z,36.90
2023-02-11T06:08:12.296Z,36.50
2023-02-11T06:10:39.226Z,36.00
2023-02-11T06:13:06.027Z,36.40
2023-02-11T06:15:32.859Z,36.30
2023-02-11T06:17:59.766Z,35.60
2023-02-11T06:20:26.712Z,36.00
2023-02-11T06:22:53.493Z,36.10
2023-02-11T06:25:20.434Z,35.80
2023-02-11T06:27:47.249Z,35.90
2023-02-11T06:30:14.649Z,36.00
2023-02-11T06:32:44.879Z,35.70
2023-02-11T06:35:14.425Z,36.30
2023-02-11T06:37:42.429Z,36.40
2023-02-11T06:40:10.559Z,36.60
2023-02-11T06:42:39.341Z,36.80
2023-02-11T06:45:09.113Z,36.70
2023-02-11T06:47:36.781Z,36.70
2023-02-11T06:50:03.966Z,36.70
2023-02-11T06:52:30.875Z,36.80
2023-02-11T06:54:57.733Z,36.80
2023-02-11T06:57:24.593Z,36.90
2023-02-11T06:59:52.059Z,37.00
2023-02-11T07:02:21.092Z,36.90
2023-02-11T07:04:48.603Z,36.70
2023-02-11T07:07:15.887Z,36.80
2023-02-11T07:09:42.975Z,36.30
2023-02-11T07:12:10.645Z,35.90
2023-02-11T07:14:37.532Z,35.70
2023-02-11T07:17:04.975Z,35.50
2023-02-11T07:19:32.115Z,35.50
2023-02-11T07:21:58.994Z,35.50
2023-02-11T07:24:25.841Z,35.30
2023-02-11T07:26:54.130Z,35.20
2023-02-11T07:29:21.358Z,34.90
2023-02-11T07:31:48.396Z,35.00
2023-02-11T07:34:15.382Z,35.10
2023-02-11T07:36:43.828Z,35.20
2023-02-11T07:39:10.893Z,35.30
2023-02-11T07:41:38.951Z,34.90
2023-02-11T07:44:06.494Z,35.30
2023-02-11T07:46:34.701Z,34.80
2023-02-11T07:49:01.610Z,34.60
2023-02-11T07:51:30.734Z,34.50
2023-02-11T07:53:59.597Z,34.80
2023-02-11T07:56:27.461Z,34.70
2023-02-11T07:58:54.991Z,34.80
2023-02-11T08:01:25.395Z,34.80
2023-02-11T08:03:53.277Z,34.40
2023-02-11T08:06:21.857Z,34.80
2023-02-11T08:08:49.268Z,34.90
2023-02-11T08:11:22.978Z,35.00
2023-02-11T08:13:50.828Z,35.00
2023-02-11T08:16:22.009Z,35.40
2023-02-11T08:18:49.480Z,35.00
2023-02-11T08:21:16.761Z,34.80
2023-02-11T08:23:44.751Z,34.80
2023-02-11T08:26:15.646Z,34.50
2023-02-11T08:28:44.558Z,34.50
2023-02-11T08:31:15.359Z,34.50
2023-02-11T08:33:42.472Z,34.60
2023-02-11T08:36:15.448Z,34.10
2023-02-11T08:38:43.131Z,34.00
2023-02-11T08:41:10.297Z,34.10
2023-02-11T08:43:41.720Z,34.60
2023-02-11T08:46:10.205Z,34.40
2023-02-11T08:48:37.469Z,34.10
2023-02-11T08:51:31.592Z,34.30
2023-02-11T08:53:59.925Z,34.20
2023-02-11T08:56:26.862Z,34.10
2023-02-11T08:58:54.193Z,34.70
2023-02-11T09:01:28.226Z,34.30
2023-02-11T09:03:55.054Z,34.00
2023-02-11T09:06:22.672Z,33.70
2023-02-11T09:08:52.272Z,33.80
2023-02-11T09:11:22.568Z,33.80
2023-02-11T09:13:50.178Z,33.60
2023-02-11T09:16:23.932Z,33.80
2023-02-11T09:18:51.174Z,34.40
2023-02-11T09:21:19.151Z,34.30
2023-02-11T09:23:47.897Z,34.20
2023-02-11T09:26:21.909Z,34.50
2023-02-11T09:28:49.165Z,34.10
2023-02-11T09:31:19.026Z,34.30
2023-02-11T09:33:48.966Z,34.20
2023-02-11T09:36:24.767Z,34.70
2023-02-11T09:38:51.917Z,34.00
2023-02-11T09:41:24.508Z,34.00
2023-02-11T09:43:58.012Z,34.10
2023-02-11T09:46:27.714Z,34.10
2023-02-11T09:48:55.691Z,33.20
2023-02-11T09:51:49.380Z,33.20
2023-02-11T09:54:30.345Z,33.40
2023-02-11T09:56:57.373Z,32.80
2023-02-11T09:59:24.428Z,33.30
2023-02-11T10:01:59.125Z,32.90
2023-02-11T10:04:52.502Z,33.60
2023-02-11T10:07:25.534Z,32.90
2023-02-11T10:10:04.618Z,32.50
2023-02-11T10:13:16.298Z,32.30
2023-02-11T10:15:50.831Z,31.90
2023-02-11T10:18:30.242Z,32.20
2023-02-11T10:21:14.996Z,31.70
2023-02-11T10:23:48.757Z,30.80
2023-02-11T10:26:18.431Z,30.70
2023-02-11T10:28:52.974Z,30.30
2023-02-11T10:31:34.185Z,30.00
2023-02-11T10:34:05.808Z,29.70
2023-02-11T10:36:41.684Z,29.50
2023-02-11T10:39:18.989Z,29.10
2023-02-11T10:42:07.285Z,28.40
2023-02-11T10:44:36.338Z,28.50
2023-02-11T10:47:14.469Z,28.80
2023-02-11T10:49:43.876Z,28.60
2023-02-11T10:52:30.549Z,28.00
2023-02-11T10:55:00.095Z,28.50
2023-02-11T10:57:32.921Z,27.80
2023-02-11T11:00:05.438Z,28.10
2023-02-11T11:02:36.284Z,27.50
2023-02-11T11:05:34.337Z,27.90
2023-02-11T11:08:05.352Z,27.90
2023-02-11T11:10:44.386Z,27.80
2023-02-11T11:13:32.932Z,27.30
2023-02-11T11:16:17.378Z,26.80
2023-02-11T11:18:45.452Z,27.00
2023-02-11T11:21:41.192Z,27.40
2023-02-11T11:24:18.699Z,27.10
2023-02-11T11:26:54.750Z,26.70
2023-02-11T11:29:28.751Z,26.10
2023-02-11T11:31:59.513Z,26.10
2023-02-11T11:34:33.464Z,26.30
2023-02-11T11:37:10.306Z,26.60
2023-02-11T11:39:37.351Z,25.40
2023-02-11T11:42:21.026Z,26.10
2023-02-11T11:45:00.932Z,25.90
2023-02-11T11:47:48.298Z,26.60
2023-02-11T11:50:33.382Z,26.20
2023-02-11T11:53:23.875Z,25.40
2023-02-11T11:56:16.712Z,24.70
2023-02-11T11:58:43.941Z,25.10
2023-02-11T12:01:31.275Z,24.80
2023-02-11T12:04:19.060Z,24.90
2023-02-11T12:07:06.983Z,24.40
2023-02-11T12:10:02.117Z,25.30
2023-02-11T12:12:39.177Z,24.90
2023-02-11T12:15:18.363Z,24.80
2023-02-11T12:18:15.562Z,24.70
2023-02-11T12:21:03.892Z,24.40
2023-02-11T12:23:30.692Z,24.50
2023-02-11T12:26:08.218Z,23.10
2023-02-11T12:28:52.176Z,23.20
2023-02-11T12:31:47.427Z,23.30
2023-02-11T12:34:17.037Z,22.70
2023-02-11T12:36:46.742Z,22.50
2023-02-11T12:39:25.694Z,21.90
2023-02-11T12:42:29.632Z,22.40
2023-02-11T12:45:11.778Z,21.60
2023-02-11T12:47:56.606Z,22.00
2023-02-11T12:50:36.683Z,22.10
2023-02-11T12:53:33.946Z,21.80
2023-02-11T12:56:53.194Z,22.20
2023-02-11T13:00:01.476Z,22.20
2023-02-11T13:02:54.583Z,22.10
2023-02-11T13:05:51.733Z,22.30
2023-02-11T13:08:35.159Z,22.40
2023-02-11T13:11:07.970Z,22.00
2023-02-11T13:13:46.589Z,22.10
2023-02-11T13:16:38.371Z,20.70
2023-02-11T13:19:05.249Z,21.50
2023-02-11T13:21:49.964Z,21.30
2023-02-11T13:24:19.536Z,21.80
2023-02-11T13:27:08.104Z,20.00
2023-02-11T13:29:58.283Z,20.30
2023-02-11T13:32:25.142Z,20.20
2023-02-11T13:34:51.893Z,20.50
2023-02-11T13:37:36.521Z,19.60
2023-02-11T13:40:20.277Z,20.00
2023-02-11T13:42:54.338Z,20.10
2023-02-11T13:45:33.441Z,20.00
2023-02-11T13:48:03.108Z,20.90
2023-02-11T13:50:32.700Z,20.70
2023-02-11T13:53:02.047Z,20.20
2023-02-11T13:55:30.456Z,19.70
2023-02-11T13:58:06.397Z,20.30
2023-02-11T14:00:36.664Z,19.40
2023-02-11T14:03:30.801Z,19.60
2023-02-11T14:06:28.152Z,19.90
2023-02-11T14:09:17.966Z,20.30
2023-02-11T14:11:54.484Z,19.60
2023-02-11T14:14:25.905Z,19.30
2023-02-11T14:16:58.942Z,18.90
2023-02-11T14:19:38.981Z,20.00
2023-02-11T14:22:16.553Z,18.70
2023-02-11T14:24:53.295Z,17.90
2023-02-11T14:27:29.036Z,18.50
2023-02-11T14:29:55.810Z,19.20
2023-02-11T14:32:31.552Z,18.00
2023-02-11T14:35:23.437Z,17.60
2023-02-11T14:38:17.230Z,17.80
2023-02-11T14:41:01.340Z,18.60
2023-02-11T14:43:35.136Z,18.50
2023-02-11T14:46:03.295Z,17.70
2023-02-11T14:48:39.214Z,18.20
2023-02-11T14:51:16.129Z,18.30
2023-02-11T14:53:49.989Z,19.80
2023-02-11T14:56:26.397Z,18.90
2023-02-11T14:58:55.252Z,18.70
2023-02-11T15:01:29.076Z,18.50
2023-02-11T15:03:56.685Z,18.40
2023-02-11T15:06:41.034Z,18.60
2023-02-11T15:09:16.453Z,18.60
2023-02-11T15:11:45.879Z,20.90
2023-02-11T15:14:19.516Z,20.70
2023-02-11T15:16:47.493Z,20.90
2023-02-11T15:19:41.302Z,21.20
2023-02-11T15:22:22.169Z,21.60
2023-02-11T15:25:04.062Z,21.40
2023-02-11T15:27:43.003Z,21.40
2023-02-11T15:30:21.807Z,22.20
2023-02-11T15:32:50.717Z,22.20
2023-02-11T15:35:18.737Z,22.40
2023-02-11T15:37:45.904Z,22.20
2023-02-11T15:40:23.037Z,22.50
2023-02-11T15:43:04.650Z,22.20
2023-02-11T15:45:44.676Z,22.30
2023-02-11T15:48:18.899Z,22.70
2023-02-11T15:50:52.489Z,22.60
2023-02-11T15:53:31.342Z,22.90
2023-02-11T15:56:09.847Z,22.70
2023-02-11T15:58:41.929Z,23.60
2023-02-11T16:01:10.273Z,23.60
2023-02-11T16:03:37.271Z,23.80
2023-02-11T16:06:21.377Z,26.40
2023-02-11T16:09:31.284Z,25.30
2023-02-11T16:12:01.269Z,24.90
2023-02-11T16:14:29.445Z,25.30
2023-02-11T16:17:27.495Z,25.60
2023-02-11T16:19:54.824Z,25.40
2023-02-11T16:22:35.335Z,26.40
2023-02-11T16:25:02.413Z,25.40
2023-02-11T16:27:38.556Z,26.10
2023-02-11T16:30:07.170Z,26.60
2023-02-11T16:32:34.071Z,27.10
2023-02-11T16:35:01.859Z,27.50
2023-02-11T16:37:28.702Z,28.00
2023-02-11T16:39:57.057Z,28.30
2023-02-11T16:42:24.532Z,27.80
2023-02-11T16:44:51.502Z,28.00
2023-02-11T16:47:26.536Z,27.80
2023-02-11T16:49:54.408Z,28.20
2023-02-11T16:52:23.231Z,29.00
2023-02-11T16:54:50.453Z,28.40
2023-02-11T16:57:20.147Z,28.60
2023-02-11T16:59:47.008Z,28.70
2023-02-11T17:02:23.918Z,29.30
2023-02-11T17:04:52.524Z,29.10
2023-02-11T17:07:19.567Z,29.70
2023-02-11T17:09:46.370Z,29.80
2023-02-11T17:12:13.259Z,29.80
2023-02-11T17:14:40.059Z,30.00
2023-02-11T17:17:07.113Z,30.40
2023-02-11T17:19:33.904Z,30.20
2023-02-11T17:22:00.750Z,30.20
2023-02-11T17:24:27.606Z,30.70
2023-02-11T17:26:54.989Z,31.60
2023-02-11T17:29:24.348Z,30.80
2023-02-11T17:31:54.962Z,31.10
2023-02-11T17:34:22.961Z,32.20
2023-02-11T17:36:50.156Z,32.60
2023-02-11T17:39:17.110Z,33.10
2023-02-11T17:41:44.775Z,33.20
2023-02-11T17:44:16.424Z,33.10
2023-02-11T17:46:43.810Z,33.10
2023-02-11T17:49:12.137Z,33.30
2023-02-11T17:51:39.901Z,33.40
2023-02-11T17:54:14.686Z,33.70
2023-02-11T17:56:42.432Z,33.60
2023-02-11T17:59:11.112Z,33.70
2023-02-11T18:01:39.689Z,33.90
2023-02-11T18:04:07.806Z,33.60
2023-02-11T18:06:34.670Z,33.70
2023-02-11T18:09:04.538Z,33.50
2023-02-11T18:11:33.637Z,34.00
2023-02-11T18:14:02.090Z,33.90
2023-02-11T18:16:30.088Z,34.40
2023-02-11T18:18:58.654Z,34.60
2023-02-11T18:21:25.949Z,34.70
2023-02-11T18:23:52.754Z,34.10
2023-02-11T18:26:22.325Z,34.30
2023-02-11T18:28:49.445Z,34.20
2023-02-11T18:31:17.212Z,34.50
2023-02-11T18:33:44.217Z,34.70
2023-02-11T18:36:13.258Z,34.20
2023-02-11T18:38:40.474Z,34.70
2023-02-11T18:41:07.588Z,34.50
2023-02-11T18:43:35.137Z,34.70
2023-02-11T18:46:06.653Z,34.50
2023-02-11T18:48:34.500Z,34.80
2023-02-11T18:51:01.404Z,34.80
2023-02-11T18:53:28.262Z,35.50
2023-02-11T18:55:55.437Z,35.00
2023-02-11T18:58:22.472Z,35.10
2023-02-11T19:00:50.033Z,34.90
2023-02-11T19:03:17.276Z,35.10
2023-02-11T19:05:46.581Z,35.00
2023-02-11T19:08:13.880Z,35.00
2023-02-11T19:10:46.075Z,35.20
2023-02-11T19:13:13.779Z,35.30
2023-02-11T19:15:44.934Z,35.50
2023-02-11T19:18:13.281Z,35.10
2023-02-11T19:20:41.308Z,35.40
2023-02-11T19:23:08.703Z,35.40
2023-02-11T19:25:36.167Z,35.40
2023-02-11T19:28:03.407Z,36.00
2023-02-11T19:30:30.554Z,35.40
2023-02-11T19:32:57.820Z,35.70
2023-02-11T19:35:25.678Z,35.70
2023-02-11T19:37:52.549Z,35.80
2023-02-11T19:40:21.302Z,35.90
2023-02-11T19:42:48.334Z,36.00
2023-02-11T19:45:15.238Z,36.40
2023-02-11T19:47:42.090Z,36.40
2023-02-11T19:50:09.734Z,36.60
2023-02-11T19:52:40.736Z,36.50
2023-02-11T19:55:08.553Z,36.30
2023-02-11T19:57:38.301Z,36.20
2023-02-11T20:00:06.154Z,36.60
2023-02-11T20:02:32.999Z,36.40
2023-02-11T20:04:59.789Z,36.50
2023-02-11T20:07:26.721Z,36.70
2023-02-11T20:09:54.386Z,36.60
2023-02-11T20:12:21.270Z,36.60
2023-02-11T20:14:48.126Z,36.60
2023-02-11T20:17:14.949Z,36.60
2023-02-11T20:19:41.750Z,36.80
2023-02-11T20:22:08.592Z,36.70
2023-02-11T20:24:35.485Z,36.90
2023-02-11T20:27:02.247Z,36.80
2023-02-11T20:29:31.197Z,37.10
2023-02-11T20:31:58.280Z,37.20
2023-02-11T20:34:25.417Z,36.70
2023-02-11T20:36:52.774Z,36.80
2023-02-11T20:39:22.458Z,36.60
2023-02-11T20:41:50.152Z,36.80
2023-02-11T20:44:17.274Z,36.60
2023-02-11T20:46:47.103Z,36.70
2023-02-11T20:49:19.892Z,36.40
2023-02-11T20:51:47.333Z,36.20
2023-02-11T20:54:17.821Z,36.10
2023-02-11T20:56:47.841Z,36.30
2023-02-11T20:59:15.132Z,36.00
2023-02-11T21:01:48.389Z,36.40
2023-02-11T21:04:21.588Z,36.30
2023-02-11T21:06:53.224Z,36.70
2023-02-11T21:09:22.517Z,37.10
2023-02-11T21:11:53.766Z,37.50
2023-02-11T21:14:23.000Z,37.90
2023-02-11T21:16:50.415Z,38.20
2023-02-11T21:19:17.757Z,38.10
2023-02-11T21:21:45.170Z,38.00
2023-02-11T21:24:12.399Z,38.20
2023-02-11T21:26:39.706Z,38.00
2023-02-11T21:29:07.848Z,38.10
2023-02-11T21:31:36.282Z,37.70
2023-02-11T21:34:03.612Z,37.60
2023-02-11T21:36:31.174Z,37.30
2023-02-11T21:38:58.468Z,37.00
2023-02-11T21:41:26.974Z,37.30
2023-02-11T21:43:53.872Z,37.20
2023-02-11T21:46:21.570Z,37.10
2023-02-11T21:48:48.910Z,37.50
2023-02-11T21:51:22.663Z,37.70
2023-02-11T21:53:57.210Z,38.10
2023-02-11T21:56:28.197Z,38.00
2023-02-11T21:58:56.571Z,38.00
2023-02-11T22:01:26.572Z,38.10
2023-02-11T22:03:53.769Z,38.00
2023-02-11T22:06:23.728Z,37.70
2023-02-11T22:08:50.795Z,37.70
2023-02-11T22:11:18.179Z,38.10
2023-02-11T22:13:45.404Z,38.20
2023-02-11T22:16:15.596Z,38.30
2023-02-11T22:18:45.902Z,38.30
2023-02-11T22:21:15.753Z,38.50
2023-02-11T22:23:44.029Z,38.10
2023-02-11T22:26:20.666Z,38.10
2023-02-11T22:28:48.596Z,37.60
2023-02-11T22:31:37.029Z,38.20
2023-02-11T22:34:04.514Z,37.90
2023-02-11T22:36:34.626Z,37.70
2023-02-11T22:39:06.841Z,38.00
2023-02-11T22:41:34.866Z,37.80
2023-02-11T22:44:01.699Z,38.90
2023-02-11T22:46:28.554Z,39.10
2023-02-11T22:48:55.388Z,38.70
2023-02-11T22:51:24.996Z,39.20
2023-02-11T22:53:51.873Z,38.60
2023-02-11T22:56:20.281Z,39.20
2023-02-11T22:58:47.697Z,39.20
2023-02-11T23:01:14.797Z,39.40
2023-02-11T23:03:42.195Z,39.40
2023-02-11T23:06:09.523Z,39.10
2023-02-11T23:08:38.341Z,39.20
2023-02-11T23:11:17.567Z,39.30
2023-02-11T23:13:45.723Z,39.70
2023-02-11T23:16:21.545Z,39.50
2023-02-11T23:18:49.488Z,40.30
2023-02-11T23:21:21.191Z,40.40
2023-02-11T23:23:48.933Z,40.70
2023-02-11T23:26:20.769Z,40.80
2023-02-11T23:28:47.917Z,41.00
2023-02-11T23:31:14.700Z,40.90
2023-02-11T23:33:41.477Z,41.00
2023-02-11T23:36:08.748Z,41.00
2023-02-11T23:38:35.572Z,41.50
2023-02-11T23:41:02.420Z,41.20
2023-02-11T23:43:29.460Z,41.70
2023-02-11T23:45:56.584Z,41.40
2023-02-11T23:48:23.715Z,41.70
2023-02-11T23:50:50.817Z,41.60
2023-02-11T23:53:17.680Z,41.70
2023-02-11T23:55:45.925Z,42.00
2023-02-11T23:58:14.091Z,41.50
